Time;durP1;ratioP1;P1;durP2;ratioP2;P2;SDS_P1;SDS_P2;PMS_P1;PMS_P2;Temp;Humidity;BMP_temperature;BMP_pressure;BME280_temperature;BME280_humidity;BME280_pressure;Samples;Min_cycle;Max_cycle;Signal;HPM_P1;HPM_P2
2022/03/11 00:00:04;;;;;;;6.93;4.33;;;;;;;12.22;19.97;96316.00;5042204;28;20230;-87
2022/03/11 00:02:36;;;;;;;12.13;4.70;;;;;;;12.16;20.17;96303.44;5045141;28;20207;-87
2022/03/11 00:05:05;;;;;;;6.87;4.40;;;;;;;12.12;19.61;96294.97;5047484;28;20220;-86
2022/03/11 00:07:33;;;;;;;12.60;5.33;;;;;;;12.18;19.88;96304.00;5040957;28;20203;-86
2022/03/11 00:10:00;;;;;;;8.70;5.03;;;;;;;12.07;19.84;96295.72;5047849;28;20202;-87
2022/03/11 00:12:27;;;;;;;10.53;4.80;;;;;;;12.18;19.47;96304.00;5039266;28;20198;-86
2022/03/11 00:14:54;;;;;;;9.57;4.40;;;;;;;12.22;19.44;96310.59;5043093;28;20206;-84
2022/03/11 00:17:23;;;;;;;8.40;4.40;;;;;;;12.21;19.46;96306.25;5047950;28;20199;-87
2022/03/11 00:19:51;;;;;;;8.07;4.37;;;;;;;12.23;19.21;96301.41;5041946;28;20484;-85
2022/03/11 00:22:18;;;;;;;9.23;5.23;;;;;;;12.26;19.14;96317.97;5035614;28;20285;-84
2022/03/11 00:24:46;;;;;;;11.10;5.17;;;;;;;12.16;19.82;96312.41;5039374;28;20235;-84
2022/03/11 00:27:12;;;;;;;6.97;4.37;;;;;;;12.20;19.69;96312.72;5042266;28;20207;-83
2022/03/11 00:29:40;;;;;;;8.23;4.90;;;;;;;12.12;19.95;96314.75;5043181;28;20211;-86
2022/03/11 00:32:08;;;;;;;8.40;4.70;;;;;;;12.07;19.96;96306.53;5056685;28;20211;-88
2022/03/11 00:34:35;;;;;;;7.33;4.80;;;;;;;12.20;19.08;96302.72;5045757;28;20221;-86
2022/03/11 00:37:09;;;;;;;7.80;4.77;;;;;;;12.23;19.86;96320.38;5039610;28;20227;-85
2022/03/11 00:39:36;;;;;;;9.70;5.03;;;;;;;12.27;18.75;96307.97;5056902;28;20252;-84
2022/03/11 00:42:03;;;;;;;9.93;4.77;;;;;;;12.16;19.49;96314.28;5040785;28;20222;-87
2022/03/11 00:44:30;;;;;;;7.77;4.37;;;;;;;12.22;19.19;96294.34;5038887;28;20235;-83
2022/03/11 00:46:57;;;;;;;7.83;4.50;;;;;;;12.21;19.13;96306.25;5047618;28;20194;-83
2022/03/11 00:49:25;;;;;;;11.17;5.00;;;;;;;12.12;19.34;96284.97;5039855;28;20290;-84
2022/03/11 00:51:52;;;;;;;7.20;4.40;;;;;;;12.34;18.50;96292.41;5042842;28;20266;-83
2022/03/11 00:54:20;;;;;;;7.00;4.47;;;;;;;12.19;18.93;96294.81;5041200;28;20211;-86
2022/03/11 00:56:47;;;;;;;8.70;4.77;;;;;;;12.18;19.30;96295.88;5038517;28;20234;-83
2022/03/11 00:59:15;;;;;;;7.53;4.87;;;;;;;12.23;19.52;96307.66;5046560;28;20202;-86
2022/03/11 01:01:42;;;;;;;10.33;6.00;;;;;;;12.15;19.59;96296.38;5042573;28;20241;-86
2022/03/11 01:04:10;;;;;;;9.07;5.67;;;;;;;12.09;19.49;96301.69;5044643;28;20215;-85
2022/03/11 01:06:38;;;;;;;8.03;4.50;;;;;;;12.13;19.26;96294.75;5045220;28;20293;-85
2022/03/11 01:09:06;;;;;;;7.67;4.33;;;;;;;12.34;18.55;96297.81;5043952;28;20221;-83
2022/03/11 01:11:34;;;;;;;5.97;3.90;;;;;;;12.27;18.50;96283.59;5043033;28;20293;-85
2022/03/11 01:14:02;;;;;;;15.20;6.10;;;;;;;12.19;19.94;96284.00;5048527;28;20217;-84
2022/03/11 01:16:29;;;;;;;11.53;5.63;;;;;;;12.11;20.09;96277.91;5042176;28;20203;-85
2022/03/11 01:18:56;;;;;;;9.00;4.80;;;;;;;12.22;19.02;96294.34;5040074;28;20198;-85
2022/03/11 01:21:23;;;;;;;10.83;5.80;;;;;;;12.20;19.20;96285.66;5048546;28;20283;-85
2022/03/11 01:23:50;;;;;;;7.90;5.17;;;;;;;12.16;19.96;96279.09;5049448;28;20228;-84
2022/03/11 01:26:18;;;;;;;10.03;5.10;;;;;;;12.13;19.90;96293.91;5038961;28;20226;-83
2022/03/11 01:28:47;;;;;;;10.93;5.37;;;;;;;12.15;19.52;96285.56;5040905;28;20201;-86
2022/03/11 01:31:14;;;;;;;9.13;5.00;;;;;;;12.17;19.13;96278.00;5041168;28;20265;-84
2022/03/11 01:33:41;;;;;;;8.87;5.57;;;;;;;12.21;19.10;96282.72;5041340;28;20190;-85
2022/03/11 01:36:09;;;;;;;12.20;5.07;;;;;;;12.23;19.54;96285.19;5040584;28;20301;-85
2022/03/11 01:38:36;;;;;;;8.87;5.37;;;;;;;12.17;19.47;96299.66;5041557;28;20206;-86
2022/03/11 01:41:04;;;;;;;8.53;5.30;;;;;;;12.10;19.57;96287.09;5042121;28;20275;-85
2022/03/11 01:43:31;;;;;;;10.43;6.20;;;;;;;12.05;20.65;96286.19;5042780;28;20233;-85
2022/03/11 01:45:59;;;;;;;8.93;5.80;;;;;;;11.94;20.50;96287.03;5043888;28;20237;-85
2022/03/11 01:48:27;;;;;;;10.13;5.97;;;;;;;11.90;20.83;96280.47;5044693;28;20206;-84
2022/03/11 01:50:54;;;;;;;9.40;5.30;;;;;;;11.93;19.71;96275.38;5047121;28;20234;-84
2022/03/11 01:53:21;;;;;;;9.40;5.97;;;;;;;11.94;20.38;96265.38;5044352;28;20204;-84
2022/03/11 01:55:48;;;;;;;9.73;5.70;;;;;;;12.01;19.57;96271.47;5047426;28;20214;-84
2022/03/11 01:58:15;;;;;;;10.17;5.77;;;;;;;12.23;19.79;96275.16;5039077;28;20209;-86
2022/03/11 02:00:42;;;;;;;11.10;6.43;;;;;;;12.09;20.23;96269.22;5046030;28;20254;-85
2022/03/11 02:03:11;;;;;;;12.80;6.97;;;;;;;12.05;20.21;96272.66;5035480;28;20292;-85
2022/03/11 02:05:38;;;;;;;10.10;5.97;;;;;;;12.04;19.81;96277.25;5040055;28;20266;-85
2022/03/11 02:08:05;;;;;;;10.07;6.13;;;;;;;12.10;20.28;96288.97;5034735;28;20230;-84
2022/03/11 02:10:34;;;;;;;12.27;6.60;;;;;;;11.98;20.63;96272.81;5042222;28;20211;-84
2022/03/11 02:13:05;;;;;;;9.93;6.23;;;;;;;11.89;21.12;96274.25;5046018;28;20292;-87
2022/03/11 02:15:33;;;;;;;12.07;6.60;;;;;;;11.90;20.52;96261.53;5042408;28;20214;-84
2022/03/11 02:18:00;;;;;;;11.20;5.90;;;;;;;11.95;20.95;96264.31;5037852;28;20205;-83
2022/03/11 02:20:28;;;;;;;12.37;6.47;;;;;;;11.92;20.77;96271.03;5044030;28;20209;-85
2022/03/11 02:22:58;;;;;;;11.40;6.77;;;;;;;11.93;20.71;96272.69;5046343;28;20216;-85
2022/03/11 02:25:27;;;;;;;13.70;7.30;;;;;;;11.87;21.33;96268.25;5034704;28;20215;-84
2022/03/11 02:27:54;;;;;;;12.00;6.20;;;;;;;11.89;20.68;96268.00;5042064;28;20222;-85
2022/03/11 02:30:22;;;;;;;14.20;7.00;;;;;;;11.92;21.29;96264.81;5052601;28;20305;-85
2022/03/11 02:32:50;;;;;;;12.10;6.67;;;;;;;11.87;20.93;96253.88;5049733;28;20215;-84
2022/03/11 02:35:18;;;;;;;12.40;7.20;;;;;;;11.84;20.83;96257.88;5040200;28;20222;-85
2022/03/11 02:37:45;;;;;;;14.43;7.17;;;;;;;11.90;21.16;96270.47;5035788;28;20210;-85
2022/03/11 02:40:13;;;;;;;13.77;7.67;;;;;;;11.76;21.56;96274.50;5041539;28;20286;-85
2022/03/11 02:42:41;;;;;;;13.57;7.63;;;;;;;11.73;21.40;96266.84;5062179;28;20244;-85
2022/03/11 02:45:10;;;;;;;12.33;7.20;;;;;;;11.62;21.50;96273.91;5042408;28;20270;-86
2022/03/11 02:47:37;;;;;;;8.63;5.17;;;;;;;11.70;21.00;96280.84;5042412;28;20202;-84
2022/03/11 02:50:06;;;;;;;14.93;7.73;;;;;;;11.66;21.76;96272.38;5045477;28;20201;-85
2022/03/11 02:52:33;;;;;;;15.13;7.77;;;;;;;11.74;21.08;96265.75;5041288;28;20214;-85
2022/03/11 02:55:00;;;;;;;13.20;7.10;;;;;;;11.82;20.59;96270.03;5051937;28;20213;-84
2022/03/11 02:57:27;;;;;;;14.37;8.03;;;;;;;11.79;21.75;96276.72;5045631;28;20303;-85
2022/03/11 02:59:56;;;;;;;14.30;7.83;;;;;;;11.74;21.10;96269.31;5038159;28;20218;-84
2022/03/11 03:02:23;;;;;;;13.47;7.83;;;;;;;11.70;22.10;96284.38;5055032;28;20230;-87
2022/03/11 03:04:51;;;;;;;15.57;7.53;;;;;;;11.64;22.07;96274.50;5049530;28;20199;-85
2022/03/11 03:07:18;;;;;;;12.53;7.23;;;;;;;11.60;21.54;96284.16;5045379;28;20236;-84
2022/03/11 03:09:46;;;;;;;15.93;8.23;;;;;;;11.44;22.71;96276.78;5043446;28;20215;-85
2022/03/11 03:12:13;;;;;;;16.97;8.90;;;;;;;11.43;22.58;96258.06;5049751;28;20209;-85
2022/03/11 03:14:41;;;;;;;13.97;7.60;;;;;;;11.55;22.26;96261.59;5049406;28;20257;-84
2022/03/11 03:17:09;;;;;;;14.73;7.73;;;;;;;11.54;21.92;96259.94;5046480;28;20272;-85
2022/03/11 03:19:38;;;;;;;13.47;7.87;;;;;;;11.51;22.00;96263.13;5039313;28;20225;-84
2022/03/11 03:22:05;;;;;;;14.70;7.70;;;;;;;11.58;21.18;96272.75;5047855;28;20276;-85
2022/03/11 03:24:32;;;;;;;12.67;7.37;;;;;;;11.55;21.63;96267.00;5037894;28;20223;-85
2022/03/11 03:26:59;;;;;;;12.20;6.80;;;;;;;11.53;21.68;96280.75;5046046;28;20216;-87
2022/03/11 03:29:26;;;;;;;16.67;7.47;;;;;;;11.59;21.58;96257.34;5048474;28;20263;-85
2022/03/11 03:31:58;;;;;;;11.80;7.00;;;;;;;11.65;20.51;96288.88;5036463;28;20284;-86
2022/03/11 03:34:30;;;;;;;13.07;7.83;;;;;;;11.55;21.72;96278.66;5041573;28;20214;-86
2022/03/11 03:36:57;;;;;;;15.43;7.30;;;;;;;11.51;21.88;96284.75;5048327;28;20214;-84
2022/03/11 03:39:25;;;;;;;13.37;6.97;;;;;;;11.46;21.79;96282.78;5047948;28;20302;-84
2022/03/11 03:41:53;;;;;;;12.93;7.13;;;;;;;11.33;21.62;96278.41;5044874;28;20230;-85
2022/03/11 03:44:20;;;;;;;12.17;7.33;;;;;;;11.52;21.12;96273.69;5044371;28;20230;-86
2022/03/11 03:46:47;;;;;;;10.80;6.43;;;;;;;11.58;20.91;96266.50;5046998;28;20217;-83
2022/03/11 03:49:15;;;;;;;15.63;7.50;;;;;;;11.48;21.33;96272.56;5043767;28;20218;-84
2022/03/11 03:51:44;;;;;;;12.37;7.50;;;;;;;11.42;21.20;96259.13;5044933;28;20202;-85
2022/03/11 03:54:11;;;;;;;12.80;6.57;;;;;;;11.43;20.81;96269.72;5041402;28;20210;-84
2022/03/11 03:56:39;;;;;;;15.17;7.67;;;;;;;11.42;21.48;96261.84;5044850;28;20264;-84
2022/03/11 03:59:07;;;;;;;13.07;7.13;;;;;;;11.42;21.24;96267.25;5040977;28;20214;-85
2022/03/11 04:01:34;;;;;;;14.80;7.73;;;;;;;11.38;20.77;96251.50;5040009;28;20237;-84
2022/03/11 04:04:02;;;;;;;15.23;7.37;;;;;;;11.31;21.61;96264.31;5044862;28;20198;-84
2022/03/11 04:06:30;;;;;;;16.63;7.93;;;;;;;11.33;21.14;96273.00;5053416;28;20289;-83
2022/03/11 04:08:59;;;;;;;11.70;6.87;;;;;;;11.33;20.90;96251.38;5035084;28;20206;-85
2022/03/11 04:11:27;;;;;;;13.00;7.20;;;;;;;11.30;21.38;96262.69;5046828;28;20283;-85
2022/03/11 04:13:54;;;;;;;14.80;7.93;;;;;;;11.29;20.97;96271.03;5054644;28;20226;-84
2022/03/11 04:16:22;;;;;;;14.83;7.77;;;;;;;11.30;20.87;96276.22;5048160;28;20236;-85
2022/03/11 04:18:50;;;;;;;14.40;6.60;;;;;;;11.36;20.83;96274.44;5046965;28;20211;-85
2022/03/11 04:21:18;;;;;;;16.87;8.17;;;;;;;11.21;22.03;96272.22;5043370;28;20226;-85
2022/03/11 04:23:48;;;;;;;14.10;7.63;;;;;;;11.09;21.38;96263.28;5042235;28;20222;-84
2022/03/11 04:26:17;;;;;;;10.30;6.13;;;;;;;11.20;21.06;96273.28;5044960;28;20206;-86
2022/03/11 04:28:44;;;;;;;12.53;7.10;;;;;;;11.18;20.41;96264.56;5040026;28;20234;-88
2022/03/11 04:31:13;;;;;;;15.03;6.77;;;;;;;11.25;20.43;96262.56;5043396;28;20278;-84
2022/03/11 04:33:42;;;;;;;11.60;6.93;;;;;;;11.17;20.55;96265.63;5036340;28;20211;-85
2022/03/11 04:36:10;;;;;;;13.10;6.63;;;;;;;11.17;21.01;96275.63;5040055;28;20244;-84
2022/03/11 04:38:38;;;;;;;14.90;7.47;;;;;;;11.10;21.37;96280.31;5036216;28;20282;-85
2022/03/11 04:41:06;;;;;;;13.97;7.87;;;;;;;11.00;21.35;96278.19;5059871;28;20244;-85
2022/03/11 04:43:37;;;;;;;14.23;7.90;;;;;;;10.94;22.21;96276.44;5043909;28;20234;-84
2022/03/11 04:46:04;;;;;;;12.27;6.73;;;;;;;10.89;21.66;96268.19;5051652;28;20237;-85
2022/03/11 04:48:32;;;;;;;14.40;7.67;;;;;;;10.93;22.00;96283.72;5047019;28;20225;-85
2022/03/11 04:50:59;;;;;;;15.20;8.60;;;;;;;10.96;21.91;96293.25;5042669;28;20198;-85
2022/03/11 04:53:26;;;;;;;18.67;8.77;;;;;;;10.93;22.28;96281.03;5061363;28;20206;-85
2022/03/11 04:55:53;;;;;;;16.07;8.37;;;;;;;10.92;22.32;96284.78;5044003;28;20216;-84
2022/03/11 04:58:20;;;;;;;12.53;7.53;;;;;;;10.86;23.10;96295.69;5038654;28;20272;-83
2022/03/11 05:00:49;;;;;;;19.93;9.90;;;;;;;10.74;23.08;96278.63;5050597;28;20288;-85
2022/03/11 05:03:16;;;;;;;14.73;8.23;;;;;;;10.69;23.10;96265.03;5042768;28;20214;-85
2022/03/11 05:05:43;;;;;;;15.50;8.70;;;;;;;10.63;23.66;96275.69;5043990;28;20404;-86
2022/03/11 05:08:10;;;;;;;18.40;9.97;;;;;;;10.63;24.39;96279.47;5039637;28;20210;-85
2022/03/11 05:10:37;;;;;;;18.40;10.20;;;;;;;10.62;24.30;96273.25;5039462;28;20217;-85
2022/03/11 05:13:05;;;;;;;20.47;10.43;;;;;;;10.65;24.10;96269.22;5041250;28;20268;-87
2022/03/11 05:15:32;;;;;;;18.93;10.47;;;;;;;10.63;24.52;96269.50;5046722;28;20233;-85
2022/03/11 05:18:00;;;;;;;20.53;10.73;;;;;;;10.57;24.33;96292.00;5042792;28;20206;-88
2022/03/11 05:20:27;;;;;;;18.10;9.93;;;;;;;10.54;25.07;96285.19;5034967;28;20262;-85
2022/03/11 05:22:54;;;;;;;18.10;9.50;;;;;;;10.46;25.34;96282.81;5052420;28;20237;-85
2022/03/11 05:25:21;;;;;;;16.60;9.47;;;;;;;10.55;24.61;96286.81;5054615;28;20293;-85
2022/03/11 05:27:48;;;;;;;23.00;12.33;;;;;;;10.49;25.09;96289.63;5038950;28;20233;-84
2022/03/11 05:30:15;;;;;;;22.73;11.23;;;;;;;10.52;25.45;96294.56;5040509;28;20290;-87
2022/03/11 05:32:44;;;;;;;21.03;11.70;;;;;;;10.53;25.06;96302.44;5044436;28;20305;-85
2022/03/11 05:35:13;;;;;;;19.50;10.17;;;;;;;10.55;25.21;96284.13;5046166;28;20261;-83
2022/03/11 05:37:42;;;;;;;21.20;11.20;;;;;;;10.45;25.79;96285.75;5038754;28;20202;-84
2022/03/11 05:40:10;;;;;;;22.00;11.80;;;;;;;10.37;26.66;96286.09;5038127;28;20212;-84
2022/03/11 05:42:38;;;;;;;23.00;11.87;;;;;;;10.37;26.08;96278.81;5063829;28;20328;-84
2022/03/11 05:45:10;;;;;;;21.77;10.47;;;;;;;10.48;26.27;96305.00;5064534;28;20247;-84
2022/03/11 05:47:38;;;;;;;24.13;12.80;;;;;;;10.43;26.46;96280.59;5050358;28;20205;-87
2022/03/11 05:50:07;;;;;;;21.90;12.60;;;;;;;10.42;27.06;96303.22;5048841;28;20251;-84
2022/03/11 05:52:37;;;;;;;23.07;12.97;;;;;;;10.39;26.71;96284.78;5041915;28;20301;-85
2022/03/11 05:55:05;;;;;;;27.87;13.17;;;;;;;10.39;26.93;96313.66;5039457;28;20212;-85
2022/03/11 05:57:33;;;;;;;24.50;12.57;;;;;;;10.36;27.16;96287.16;5046627;28;20282;-87
2022/03/11 06:00:00;;;;;;;24.43;13.33;;;;;;;10.36;27.06;96263.69;5048139;28;20209;-83
2022/03/11 06:02:27;;;;;;;22.67;13.07;;;;;;;10.33;27.97;96287.59;5054142;28;20270;-85
2022/03/11 06:04:54;;;;;;;24.73;13.57;;;;;;;10.25;28.40;96299.53;5044567;28;20202;-83
2022/03/11 06:07:21;;;;;;;29.27;13.57;;;;;;;10.24;27.80;96287.09;5047708;28;20279;-84
2022/03/11 06:09:49;;;;;;;22.73;12.73;;;;;;;10.27;28.22;96289.34;5053973;28;20209;-86
2022/03/11 06:12:16;;;;;;;24.17;13.27;;;;;;;10.26;28.76;96309.28;5042926;28;20292;-84
2022/03/11 06:14:43;;;;;;;24.13;12.93;;;;;;;10.21;28.37;96314.53;5054328;28;20208;-83
2022/03/11 06:17:10;;;;;;;23.30;12.93;;;;;;;10.24;28.50;96287.91;5051845;28;20194;-85
2022/03/11 06:19:38;;;;;;;22.80;12.57;;;;;;;10.28;28.30;96304.50;5048137;28;20304;-83
2022/03/11 06:22:05;;;;;;;23.97;13.00;;;;;;;10.31;27.78;96293.22;5049100;28;20225;-83
2022/03/11 06:24:34;;;;;;;22.30;12.03;;;;;;;10.32;28.43;96318.31;5042552;28;20221;-88
2022/03/11 06:27:03;;;;;;;22.43;12.60;;;;;;;10.28;28.09;96309.88;5045438;28;20205;-84
2022/03/11 06:29:30;;;;;;;23.73;13.43;;;;;;;10.27;27.98;96307.41;5037813;28;20226;-85
2022/03/11 06:31:57;;;;;;;24.00;12.53;;;;;;;10.29;28.54;96329.59;5040553;28;20328;-85
2022/03/11 06:34:24;;;;;;;23.30;12.90;;;;;;;10.32;28.55;96311.06;5049376;28;20210;-85
2022/03/11 06:36:57;;;;;;;21.73;12.50;;;;;;;10.28;28.88;96317.97;5055739;28;20284;-84
2022/03/11 06:39:25;;;;;;;24.33;12.57;;;;;;;10.25;28.86;96315.72;5047061;28;20221;-84
2022/03/11 06:41:52;;;;;;;24.20;13.33;;;;;;;10.26;28.24;96298.50;5049944;28;20205;-84
2022/03/11 06:44:21;;;;;;;23.93;12.53;;;;;;;10.29;28.43;96300.75;5057136;28;20302;-86
2022/03/11 06:46:48;;;;;;;23.57;12.67;;;;;;;10.30;28.13;96290.75;5065970;28;20215;-84
2022/03/11 06:49:15;;;;;;;23.90;12.53;;;;;;;10.35;28.33;96313.31;5052589;28;20200;-85
2022/03/11 06:51:42;;;;;;;23.43;13.40;;;;;;;10.33;28.67;96318.09;5048002;28;20247;-85
2022/03/11 06:54:10;;;;;;;24.17;13.50;;;;;;;10.30;28.77;96305.06;5052607;28;20210;-85
2022/03/11 06:56:37;;;;;;;23.30;13.33;;;;;;;10.30;28.76;96337.44;5044690;28;20220;-83
2022/03/11 06:59:08;;;;;;;22.07;12.60;;;;;;;10.34;28.85;96305.44;5047971;28;20206;-84
2022/03/11 07:01:37;;;;;;;23.47;12.97;;;;;;;10.34;28.31;96319.75;5053185;28;20202;-85
2022/03/11 07:04:04;;;;;;;23.07;12.90;;;;;;;10.37;28.56;96321.19;5053708;28;20235;-84
2022/03/11 07:06:31;;;;;;;22.67;12.83;;;;;;;10.42;28.44;96319.44;5072232;28;20292;-86
2022/03/11 07:08:58;;;;;;;24.03;13.27;;;;;;;10.49;28.71;96322.03;5052704;28;20218;-84
2022/03/11 07:11:26;;;;;;;22.23;13.13;;;;;;;10.43;28.92;96326.47;5052557;28;20217;-86
2022/03/11 07:13:53;;;;;;;24.93;12.10;;;;;;;10.39;29.05;96335.25;5068579;28;20275;-85
2022/03/11 07:16:20;;;;;;;28.17;14.03;;;;;;;10.42;28.88;96322.13;5071125;28;20202;-85
2022/03/11 07:18:48;;;;;;;21.90;12.40;;;;;;;10.39;28.92;96333.38;5048502;28;20206;-85
2022/03/11 07:21:16;;;;;;;22.97;13.40;;;;;;;10.39;29.02;96319.06;5040132;28;20251;-85
2022/03/11 07:23:43;;;;;;;22.70;12.00;;;;;;;10.39;28.60;96325.28;5047548;28;20233;-85
2022/03/11 07:26:10;;;;;;;32.40;14.30;;;;;;;10.40;29.05;96324.22;5052790;28;20198;-86
2022/03/11 07:28:37;;;;;;;23.83;13.23;;;;;;;10.44;29.00;96327.31;5051727;28;20319;-87
2022/03/11 07:31:05;;;;;;;26.63;14.50;;;;;;;10.46;29.27;96338.69;5057534;28;20205;-80
2022/03/11 07:33:32;;;;;;;21.47;11.57;;;;;;;10.49;28.91;96306.66;5053304;28;20229;-82
2022/03/11 07:36:00;;;;;;;24.33;13.57;;;;;;;10.44;29.95;96314.63;5052366;28;20202;-81
2022/03/11 07:38:30;;;;;;;24.67;13.17;;;;;;;10.50;28.94;96310.19;5051336;28;20213;-81
2022/03/11 07:40:59;;;;;;;25.20;13.30;;;;;;;10.56;29.07;96345.16;5047937;28;20221;-81
2022/03/11 07:43:26;;;;;;;22.37;13.17;;;;;;;10.60;28.89;96313.97;5054274;28;20233;-81
2022/03/11 07:45:53;;;;;;;26.27;12.40;;;;;;;10.57;29.44;96327.91;5059108;28;20287;-79
2022/03/11 07:48:20;;;;;;;24.53;13.23;;;;;;;10.59;29.35;96327.69;5050358;28;20205;-80
2022/03/11 07:50:48;;;;;;;20.70;12.07;;;;;;;10.61;28.95;96326.41;5049150;28;20289;-81
2022/03/11 07:53:16;;;;;;;24.43;13.30;;;;;;;10.58;28.96;96294.47;5049950;28;20302;-81
2022/03/11 07:55:43;;;;;;;22.30;13.50;;;;;;;10.60;29.26;96324.78;5050320;28;20240;-81
2022/03/11 07:58:12;;;;;;;23.30;12.40;;;;;;;10.66;28.83;96327.59;5042669;28;20198;-80
2022/03/11 08:00:41;;;;;;;26.33;13.67;;;;;;;10.63;28.68;96327.00;5051077;28;20209;-80
2022/03/11 08:03:08;;;;;;;24.50;12.57;;;;;;;10.58;28.90;96331.44;5042669;28;20221;-81
2022/03/11 08:05:35;;;;;;;23.90;12.67;;;;;;;10.56;28.97;96312.78;5045781;28;20206;-80
2022/03/11 08:08:03;;;;;;;24.37;13.37;;;;;;;10.66;29.27;96328.41;5033305;28;20198;-82
2022/03/11 08:10:33;;;;;;;26.33;13.00;;;;;;;10.65;29.31;96320.53;5035467;28;20214;-81
2022/03/11 08:13:00;;;;;;;25.17;12.90;;;;;;;10.74;28.85;96319.97;5064997;28;20205;-81
2022/03/11 08:15:28;;;;;;;25.33;15.17;;;;;;;10.74;28.56;96319.16;5043230;28;20205;-81
2022/03/11 08:17:56;;;;;;;24.10;12.83;;;;;;;10.79;28.10;96324.69;5036915;28;20201;-80
2022/03/11 08:20:25;;;;;;;24.47;13.10;;;;;;;10.81;28.85;96282.06;5045878;28;20213;-81
2022/03/11 08:22:52;;;;;;;24.23;13.33;;;;;;;10.77;29.10;96313.28;5036120;28;20210;-81
2022/03/11 08:25:20;;;;;;;24.27;13.60;;;;;;;10.71;29.39;96319.63;5045909;28;20283;-80
2022/03/11 08:27:49;;;;;;;24.37;13.87;;;;;;;10.72;28.89;96300.47;5043741;28;20272;-81
2022/03/11 08:30:18;;;;;;;24.67;13.27;;;;;;;10.79;28.83;96305.78;5045246;28;20198;-82
2022/03/11 08:32:46;;;;;;;23.77;13.03;;;;;;;10.75;29.61;96299.19;5045317;28;20213;-81
2022/03/11 08:35:14;;;;;;;23.57;13.97;;;;;;;10.88;29.03;96315.19;5039142;28;20216;-81
2022/03/11 08:37:41;;;;;;;26.47;14.53;;;;;;;10.90;29.14;96318.47;5044798;28;20217;-82
2022/03/11 08:40:11;;;;;;;22.13;12.97;;;;;;;10.96;28.52;96280.56;5041531;28;20217;-80
2022/03/11 08:42:39;;;;;;;20.40;11.93;;;;;;;11.12;28.28;96287.16;5037522;28;20275;-81
2022/03/11 08:45:11;;;;;;;24.27;13.30;;;;;;;11.21;28.06;96280.31;5047037;28;20221;-79
2022/03/11 08:47:38;;;;;;;26.03;14.63;;;;;;;11.22;28.97;96276.56;5039277;28;20236;-81
2022/03/11 08:50:05;;;;;;;21.63;13.30;;;;;;;11.29;28.20;96274.56;5044083;28;20206;-81
2022/03/11 08:52:32;;;;;;;23.07;13.97;;;;;;;11.31;28.94;96282.44;5045896;28;20214;-80
2022/03/11 08:55:00;;;;;;;21.27;12.30;;;;;;;11.36;28.73;96283.38;5064344;28;20228;-81
2022/03/11 08:57:27;;;;;;;28.07;15.70;;;;;;;11.37;28.70;96278.78;5049939;28;20210;-82
2022/03/11 08:59:54;;;;;;;26.10;14.97;;;;;;;11.47;28.17;96275.47;5052200;28;20198;-81
2022/03/11 09:02:23;;;;;;;29.40;14.57;;;;;;;11.52;28.30;96275.59;5048686;28;20206;-80
2022/03/11 09:04:50;;;;;;;25.57;14.50;;;;;;;11.57;28.80;96268.38;5042177;28;20212;-80
2022/03/11 09:07:18;;;;;;;27.13;15.00;;;;;;;11.59;28.65;96306.00;5074671;28;20233;-80
2022/03/11 09:09:45;;;;;;;26.70;15.30;;;;;;;11.70;28.29;96278.13;5047276;28;20208;-79
2022/03/11 09:12:12;;;;;;;29.33;15.50;;;;;;;11.74;28.39;96301.78;5045669;28;20221;-80
2022/03/11 09:14:39;;;;;;;26.20;15.00;;;;;;;11.73;28.05;96277.66;5045342;28;20213;-80
2022/03/11 09:17:07;;;;;;;30.33;15.57;;;;;;;11.78;28.58;96287.78;5042954;28;20216;-79
2022/03/11 09:19:35;;;;;;;26.67;14.97;;;;;;;11.80;27.82;96280.25;5044132;28;20285;-80
2022/03/11 09:22:03;;;;;;;26.67;15.43;;;;;;;11.87;28.17;96262.00;5039884;28;20249;-80
2022/03/11 09:24:30;;;;;;;27.23;15.37;;;;;;;11.97;27.84;96267.63;5044329;28;20251;-80
2022/03/11 09:26:58;;;;;;;23.87;14.10;;;;;;;11.93;27.80;96253.75;5077898;28;20217;-80
2022/03/11 09:29:28;;;;;;;21.27;12.90;;;;;;;12.04;27.37;96266.41;5049312;28;20209;-80
2022/03/11 09:31:56;;;;;;;23.90;11.90;;;;;;;12.05;27.44;96246.41;5079434;28;20209;-80
2022/03/11 09:34:23;;;;;;;26.67;15.43;;;;;;;12.02;28.38;96246.88;5048537;28;20202;-80
2022/03/11 09:36:53;;;;;;;28.33;15.13;;;;;;;12.15;28.45;96247.66;5050384;28;20201;-80
2022/03/11 09:39:21;;;;;;;24.70;14.73;;;;;;;12.20;27.61;96270.22;5052655;28;20202;-80
2022/03/11 09:41:49;;;;;;;24.83;14.90;;;;;;;12.20;27.33;96258.56;5078842;28;20216;-80
2022/03/11 09:44:18;;;;;;;25.83;14.97;;;;;;;12.31;27.79;96255.81;5046886;28;20246;-81
2022/03/11 09:46:46;;;;;;;26.60;14.77;;;;;;;12.33;27.77;96242.06;5057969;28;20229;-81
2022/03/11 09:49:14;;;;;;;25.83;15.10;;;;;;;12.25;27.74;96264.91;5052192;28;20213;-81
2022/03/11 09:51:41;;;;;;;25.83;15.07;;;;;;;12.30;28.07;96256.06;5048138;28;20208;-80
2022/03/11 09:54:11;;;;;;;25.77;14.83;;;;;;;12.39;27.70;96231.06;5048987;28;20206;-80
2022/03/11 09:56:40;;;;;;;28.73;14.30;;;;;;;12.44;27.28;96255.50;5049390;28;20290;-80
2022/03/11 09:59:08;;;;;;;27.73;15.53;;;;;;;12.54;27.74;96268.41;5076816;28;20206;-80
2022/03/11 10:01:36;;;;;;;21.57;12.83;;;;;;;12.60;26.89;96253.88;5044432;28;20223;-81
2022/03/11 10:04:05;;;;;;;25.70;14.20;;;;;;;12.56;27.56;96247.31;5037782;28;20291;-80
2022/03/11 10:06:39;;;;;;;24.27;14.90;;;;;;;12.61;27.30;96277.19;5044550;28;20202;-80
2022/03/11 10:09:07;;;;;;;27.13;15.30;;;;;;;12.69;27.06;96251.59;5041167;28;20254;-79
2022/03/11 10:11:39;;;;;;;29.70;14.37;;;;;;;12.69;27.06;96241.56;5041451;28;20205;-82
2022/03/11 10:14:08;;;;;;;33.70;15.73;;;;;;;12.82;27.02;96245.84;5044852;28;20452;-80
2022/03/11 10:16:37;;;;;;;28.37;14.17;;;;;;;12.81;26.67;96245.03;5038532;28;20201;-80
2022/03/11 10:19:06;;;;;;;23.37;14.37;;;;;;;13.16;25.76;96249.38;5048296;28;20229;-80
2022/03/11 10:21:35;;;;;;;24.33;14.43;;;;;;;12.94;26.89;96240.31;5042678;28;20210;-79
2022/03/11 10:24:08;;;;;;;25.53;15.10;;;;;;;13.08;26.81;96223.50;5060880;28;20508;-81
2022/03/11 10:26:40;;;;;;;26.97;14.87;;;;;;;13.14;26.38;96243.38;5047302;28;20206;-81
2022/03/11 10:29:10;;;;;;;22.50;12.80;;;;;;;13.19;25.67;96240.75;5045956;28;20221;-81
2022/03/11 10:31:40;;;;;;;25.93;14.90;;;;;;;13.11;26.58;96241.13;5046471;28;20201;-80
2022/03/11 10:34:21;;;;;;;25.80;15.00;;;;;;;13.26;25.72;96244.13;5045679;28;20290;-83
2022/03/11 10:36:51;;;;;;;23.47;13.83;;;;;;;13.11;26.27;96238.41;5061372;28;20205;-80
2022/03/11 10:39:20;;;;;;;22.37;13.60;;;;;;;13.21;25.42;96238.59;5047649;28;20205;-80
2022/03/11 10:41:50;;;;;;;23.13;13.30;;;;;;;13.28;25.33;96212.13;5062674;28;20216;-80
2022/03/11 10:44:26;;;;;;;24.33;14.27;;;;;;;13.33;25.23;96219.53;5047699;28;20240;-81
2022/03/11 10:46:55;;;;;;;26.57;15.13;;;;;;;13.25;26.09;96224.31;5044208;28;20215;-81
2022/03/11 10:49:27;;;;;;;22.27;13.87;;;;;;;13.21;25.57;96238.59;5039331;28;20208;-80
2022/03/11 10:51:56;;;;;;;24.17;14.53;;;;;;;13.23;25.37;96221.03;5042438;28;20288;-81
2022/03/11 10:54:27;;;;;;;19.07;12.53;;;;;;;13.30;25.37;96230.88;5039490;28;20202;-80
2022/03/11 10:56:56;;;;;;;24.00;13.73;;;;;;;13.37;25.42;96216.06;5044550;28;20210;-79
2022/03/11 10:59:28;;;;;;;23.37;13.83;;;;;;;13.40;25.24;96220.16;5047194;28;20206;-80
2022/03/11 11:01:57;;;;;;;24.40;14.07;;;;;;;13.55;24.71;96228.50;5046322;28;20206;-81
2022/03/11 11:04:26;;;;;;;22.93;13.97;;;;;;;13.86;24.17;96221.56;5038700;28;20233;-80
2022/03/11 11:06:55;;;;;;;25.23;13.90;;;;;;;13.81;24.86;96187.03;5046718;28;20309;-80
2022/03/11 11:09:23;;;;;;;19.40;12.70;;;;;;;13.80;24.43;96204.38;5042652;28;20202;-80
2022/03/11 11:11:52;;;;;;;26.33;14.20;;;;;;;13.83;24.64;96208.50;5047013;28;20288;-79
2022/03/11 11:14:21;;;;;;;25.80;14.40;;;;;;;13.73;25.06;96197.50;5047914;28;20220;-81
2022/03/11 11:16:50;;;;;;;23.33;13.93;;;;;;;13.63;24.46;96223.44;5037998;28;20214;-80
2022/03/11 11:19:19;;;;;;;23.50;13.77;;;;;;;13.73;24.68;96224.66;5043023;28;20210;-80
2022/03/11 11:21:48;;;;;;;22.13;13.33;;;;;;;13.71;23.73;96211.31;5049523;28;20209;-79
2022/03/11 11:24:17;;;;;;;24.40;14.37;;;;;;;13.78;24.21;96233.66;5058924;28;20218;-79